createdAt,value
2022-07-28T00:02:29.206Z,0.88
2022-07-28T00:07:31.169Z,1.08
2022-07-28T00:12:33.397Z,0.73
2022-07-28T00:17:35.554Z,0.73
2022-07-28T00:22:44.780Z,0.98
2022-07-28T00:27:46.584Z,0.70
2022-07-28T00:32:48.439Z,0.60
2022-07-28T00:37:50.408Z,0.55
2022-07-28T00:42:53.466Z,0.95
2022-07-28T00:47:55.310Z,0.73
2022-07-28T00:52:58.305Z,0.73
2022-07-28T00:58:00.939Z,0.80
2022-07-28T01:03:05.373Z,0.60
2022-07-28T01:08:18.238Z,0.68
2022-07-28T01:13:30.081Z,0.80
2022-07-28T01:19:12.802Z,0.73
2022-07-28T01:24:40.714Z,0.80
2022-07-28T01:30:06.467Z,0.50
2022-07-28T01:35:23.528Z,1.00
2022-07-28T01:40:29.713Z,1.52
2022-07-28T01:45:33.946Z,5.68
2022-07-28T01:50:37.930Z,5.28
2022-07-28T01:55:42.675Z,4.35
2022-07-28T02:00:52.513Z,4.97
2022-07-28T02:05:57.470Z,3.47
2022-07-28T02:11:18.488Z,3.38
2022-07-28T02:16:25.027Z,2.85
2022-07-28T02:21:30.215Z,3.92
2022-07-28T02:26:37.124Z,4.22
2022-07-28T02:31:51.865Z,2.40
2022-07-28T02:36:58.081Z,3.55
2022-07-28T02:42:15.682Z,1.30
2022-07-28T02:47:22.841Z,2.10
2022-07-28T02:52:27.235Z,2.23
2022-07-28T02:57:31.217Z,1.42
2022-07-28T03:02:36.770Z,1.42
2022-07-28T03:07:50.347Z,1.00
2022-07-28T03:12:55.244Z,1.15
2022-07-28T03:17:57.110Z,1.20
2022-07-28T03:22:59.651Z,1.10
2022-07-28T03:28:04.153Z,1.25
2022-07-28T03:33:07.168Z,1.17
2022-07-28T03:38:13.757Z,1.20
2022-07-28T03:43:21.622Z,1.00
2022-07-28T03:48:31.644Z,1.13
2022-07-28T03:53:33.639Z,0.90
2022-07-28T03:58:36.121Z,0.93
2022-07-28T04:03:43.915Z,1.02
2022-07-28T04:08:46.680Z,1.58
2022-07-28T04:13:48.702Z,1.30
2022-07-28T04:18:50.595Z,1.30
2022-07-28T04:23:52.512Z,1.35
2022-07-28T04:28:54.353Z,1.40
2022-07-28T04:33:56.403Z,1.30
2022-07-28T04:38:59.495Z,1.60
2022-07-28T04:44:01.563Z,1.45
2022-07-28T04:49:04.611Z,1.17
2022-07-28T04:54:06.543Z,1.17
2022-07-28T04:59:08.961Z,1.20
2022-07-28T05:04:12.795Z,0.90
2022-07-28T05:09:14.958Z,1.00
2022-07-28T05:14:17.626Z,1.30
2022-07-28T05:19:19.517Z,0.77
2022-07-28T05:24:21.575Z,1.58
2022-07-28T05:29:23.873Z,1.40
2022-07-28T05:34:25.761Z,1.15
2022-07-28T05:39:27.833Z,1.27
2022-07-28T05:44:33.478Z,0.80
2022-07-28T05:49:39.774Z,1.30
2022-07-28T05:54:41.638Z,1.08
2022-07-28T05:59:43.567Z,1.48
2022-07-28T06:04:45.400Z,1.05
2022-07-28T06:09:47.257Z,1.20
2022-07-28T06:14:49.223Z,1.42
2022-07-28T06:19:53.790Z,1.40
2022-07-28T06:24:55.877Z,1.38
2022-07-28T06:29:57.723Z,6.78
2022-07-28T06:34:59.694Z,3.65
2022-07-28T06:40:01.713Z,3.00
2022-07-28T06:45:05.353Z,3.30
2022-07-28T06:50:25.687Z,6.03
2022-07-28T06:55:35.342Z,4.25
2022-07-28T07:00:38.568Z,3.72
2022-07-28T07:05:40.475Z,3.65
2022-07-28T07:10:42.339Z,4.32
2022-07-28T07:15:44.234Z,5.85
2022-07-28T07:20:46.138Z,7.13
2022-07-28T07:25:48.165Z,11.23
2022-07-28T07:30:50.076Z,7.07
2022-07-28T07:35:51.948Z,7.70
2022-07-28T07:40:54.082Z,9.38
2022-07-28T07:45:56.032Z,14.02
2022-07-28T07:50:58.025Z,12.00
2022-07-28T07:56:00.051Z,11.25
2022-07-28T08:01:02.011Z,7.90
2022-07-28T08:06:04.124Z,10.48
2022-07-28T08:11:06.085Z,8.23
2022-07-28T08:16:10.015Z,5.30
2022-07-28T08:21:13.211Z,4.40
2022-07-28T08:26:15.159Z,4.68
2022-07-28T08:31:21.965Z,4.57
2022-07-28T08:36:24.545Z,2.35
2022-07-28T08:41:36.794Z,1.42
2022-07-28T08:46:39.077Z,1.00
2022-07-28T08:51:42.407Z,1.35
2022-07-28T08:56:47.890Z,1.38
2022-07-28T09:01:57.263Z,1.00
2022-07-28T09:07:03.425Z,0.77
2022-07-28T09:12:06.443Z,0.68
2022-07-28T09:17:08.924Z,1.20
2022-07-28T09:22:10.989Z,0.85
2022-07-28T09:27:15.299Z,1.45
2022-07-28T09:32:20.674Z,1.80
2022-07-28T09:37:28.660Z,2.05
2022-07-28T09:42:47.109Z,17.00
2022-07-28T09:47:49.403Z,3.65
2022-07-28T09:52:54.703Z,3.17
2022-07-28T09:57:56.989Z,2.83
2022-07-28T10:03:00.218Z,2.92
2022-07-28T10:08:02.381Z,3.30
2022-07-28T10:13:07.978Z,3.58
2022-07-28T10:18:09.859Z,2.83
2022-07-28T10:23:14.868Z,3.15
2022-07-28T10:28:22.999Z,2.40
2022-07-28T10:33:26.394Z,1.85
2022-07-28T10:38:36.521Z,1.10
2022-07-28T10:43:42.573Z,1.40
2022-07-28T10:48:45.351Z,0.90
2022-07-28T10:53:54.815Z,0.80
2022-07-28T10:59:21.943Z,1.08
2022-07-28T11:04:49.064Z,0.30
2022-07-28T11:09:52.342Z,0.88
2022-07-28T11:14:55.032Z,0.47
2022-07-28T11:25:22.706Z,0.57
2022-07-28T11:30:36.938Z,0.50
2022-07-28T11:35:38.958Z,0.40
2022-07-28T11:40:45.411Z,0.38
2022-07-28T11:45:55.628Z,0.57
2022-07-28T11:51:04.319Z,0.70
2022-07-28T11:56:26.260Z,0.70
2022-07-28T12:01:32.143Z,0.95
2022-07-28T12:06:40.567Z,0.77
2022-07-28T12:11:42.761Z,0.60
2022-07-28T12:16:50.031Z,0.60
2022-07-28T12:26:55.765Z,0.63
2022-07-28T12:32:01.115Z,0.80
2022-07-28T12:37:05.363Z,0.50
2022-07-28T12:42:10.489Z,1.08
2022-07-28T12:47:14.704Z,0.65
2022-07-28T12:52:23.290Z,0.98
2022-07-28T12:57:47.983Z,1.50
2022-07-28T13:02:53.317Z,1.27
2022-07-28T13:08:06.458Z,0.93
2022-07-28T13:13:08.356Z,1.33
2022-07-28T13:18:11.003Z,0.70
2022-07-28T13:23:12.832Z,0.47
2022-07-28T13:28:26.702Z,0.88
2022-07-28T13:33:28.874Z,1.30
2022-07-28T13:38:31.645Z,0.80
2022-07-28T13:43:35.774Z,1.35
2022-07-28T13:48:57.329Z,2.10
2022-07-28T13:54:02.334Z,1.98
2022-07-28T13:59:04.306Z,2.38
2022-07-28T14:04:16.655Z,1.83
2022-07-28T14:09:21.212Z,3.03
2022-07-28T14:14:25.662Z,2.90
2022-07-28T14:19:39.653Z,2.30
2022-07-28T14:24:42.883Z,1.75
2022-07-28T14:29:45.863Z,1.65
2022-07-28T14:34:47.726Z,2.03
2022-07-28T14:39:49.565Z,2.13
2022-07-28T14:44:51.480Z,1.50
2022-07-28T14:49:57.132Z,1.73
2022-07-28T14:55:00.467Z,1.30
2022-07-28T15:00:02.510Z,1.58
2022-07-28T15:05:05.673Z,1.60
2022-07-28T15:10:08.250Z,2.17
2022-07-28T15:15:11.168Z,1.65
2022-07-28T15:20:13.665Z,3.05
2022-07-28T15:25:15.995Z,2.08
2022-07-28T15:30:18.359Z,2.17
2022-07-28T15:35:20.369Z,1.83
2022-07-28T15:40:22.586Z,2.50
2022-07-28T15:45:25.662Z,2.30
2022-07-28T15:50:27.853Z,1.73
2022-07-28T15:55:30.088Z,1.80
2022-07-28T16:00:33.979Z,1.98
2022-07-28T16:05:36.200Z,2.38
2022-07-28T16:10:38.382Z,2.75
2022-07-28T16:15:40.833Z,0.95
2022-07-28T16:20:43.008Z,1.52
2022-07-28T16:25:45.267Z,1.67
2022-07-28T16:30:48.170Z,1.80
2022-07-28T16:35:50.151Z,3.10
2022-07-28T16:40:54.930Z,2.58
2022-07-28T16:45:57.457Z,1.92
2022-07-28T16:50:59.747Z,2.55
2022-07-28T16:56:01.782Z,2.25
2022-07-28T17:01:03.856Z,0.90
2022-07-28T17:06:06.716Z,1.15
2022-07-28T17:11:08.749Z,1.02
2022-07-28T17:16:10.900Z,1.95
2022-07-28T17:21:13.277Z,2.22
2022-07-28T17:27:30.653Z,1.50
2022-07-28T17:31:39.263Z,1.23
2022-07-28T17:36:45.731Z,1.08
2022-07-28T17:41:47.862Z,1.05
2022-07-28T17:46:50.567Z,1.08
2022-07-28T17:51:53.047Z,1.45
2022-07-28T17:56:56.888Z,1.85
2022-07-28T18:01:59.019Z,1.48
2022-07-28T18:07:02.458Z,0.68
2022-07-28T18:12:04.675Z,0.90
2022-07-28T18:17:06.820Z,0.90
2022-07-28T18:22:08.854Z,0.80
2022-07-28T18:27:11.104Z,1.02
2022-07-28T18:32:14.675Z,0.98
2022-07-28T18:37:16.795Z,0.60
2022-07-28T18:42:18.738Z,0.80
2022-07-28T18:47:20.777Z,0.80
2022-07-28T18:52:23.620Z,0.90
2022-07-28T18:57:25.967Z,0.90
2022-07-28T19:02:28.033Z,0.80
2022-07-28T19:07:30.861Z,0.50
2022-07-28T19:12:34.496Z,1.10
2022-07-28T19:17:37.216Z,0.90
2022-07-28T19:22:40.219Z,0.70
2022-07-28T19:27:42.493Z,0.75
2022-07-28T19:32:44.600Z,0.70
2022-07-28T19:37:46.526Z,1.08
2022-07-28T19:42:48.730Z,0.88
2022-07-28T19:47:51.630Z,0.80
2022-07-28T19:52:53.643Z,0.55
2022-07-28T19:57:55.726Z,0.80
2022-07-28T20:02:57.651Z,0.90
2022-07-28T20:08:00.181Z,0.75
2022-07-28T20:13:03.583Z,0.57
2022-07-28T20:18:05.641Z,0.50
2022-07-28T20:23:07.411Z,0.80
2022-07-28T20:28:09.379Z,0.77
2022-07-28T20:33:11.179Z,0.75
2022-07-28T20:38:13.000Z,0.63
2022-07-28T20:43:14.830Z,1.00
2022-07-28T20:48:16.628Z,0.57
2022-07-28T20:53:18.928Z,0.52
2022-07-28T20:58:21.076Z,0.80
2022-07-28T21:03:23.062Z,0.57
2022-07-28T21:08:25.029Z,1.38
2022-07-28T21:13:26.922Z,0.43
2022-07-28T21:18:28.896Z,0.70
2022-07-28T21:23:55.679Z,0.65
2022-07-28T21:34:15.348Z,0.73
2022-07-28T21:39:17.736Z,0.47
2022-07-28T21:44:22.881Z,0.88
2022-07-28T21:49:26.398Z,0.80
2022-07-28T21:54:28.446Z,0.47
2022-07-28T21:59:30.359Z,0.60
2022-07-28T22:04:41.374Z,0.70
2022-07-28T22:09:43.427Z,0.60
2022-07-28T22:14:45.370Z,0.80
2022-07-28T22:19:47.390Z,0.75
2022-07-28T22:24:49.340Z,0.57
2022-07-28T22:29:52.283Z,0.85
2022-07-28T22:34:54.413Z,0.77
2022-07-28T22:39:56.258Z,0.90
2022-07-28T22:44:58.233Z,0.77
2022-07-28T22:50:00.265Z,0.70
2022-07-28T22:55:02.558Z,0.80
2022-07-28T23:00:06.117Z,0.80
2022-07-28T23:05:09.957Z,0.90
2022-07-28T23:10:12.439Z,1.00
2022-07-28T23:15:17.383Z,1.13
2022-07-28T23:20:19.268Z,1.08
2022-07-28T23:25:25.144Z,1.85
2022-07-28T23:30:27.430Z,1.67
2022-07-28T23:35:29.763Z,1.88
2022-07-28T23:40:31.955Z,2.75
2022-07-28T23:45:34.045Z,3.00
2022-07-28T23:50:36.138Z,2.85
2022-07-28T23:55:38.131Z,3.60
